Time;durP1;ratioP1;P1;durP2;ratioP2;P2;SDS_P1;SDS_P2;PMS_P1;PMS_P2;Temp;Humidity;BMP_temperature;BMP_pressure;BME280_temperature;BME280_humidity;BME280_pressure;Samples;Min_cycle;Max_cycle;Signal;HPM_P1;HPM_P2
2021/12/11 00:00:39;;;;;;;9.40;5.20;;;;;;;18.91;45.22;100633.97;4990857;28;20120;-63
2021/12/11 00:03:13;;;;;;;10.10;5.32;;;;;;;18.89;45.54;100641.22;4990519;28;20053;-63
2021/12/11 00:05:39;;;;;;;9.80;4.75;;;;;;;18.91;45.23;100636.63;5006571;28;20038;-63
2021/12/11 00:08:05;;;;;;;9.88;4.75;;;;;;;18.86;45.65;100645.00;5006446;28;20057;-63
2021/12/11 00:10:44;;;;;;;8.73;5.07;;;;;;;18.85;45.19;100647.84;5006646;28;20042;-63
2021/12/11 00:13:16;;;;;;;10.68;5.25;;;;;;;18.83;45.59;100658.59;5009045;28;20588;-63
2021/12/11 00:15:43;;;;;;;8.45;4.90;;;;;;;18.80;45.43;100666.03;5009698;28;20046;-63
2021/12/11 00:18:11;;;;;;;8.80;4.82;;;;;;;18.82;45.57;100664.91;5010735;28;20132;-63
2021/12/11 00:20:42;;;;;;;8.82;5.22;;;;;;;18.78;45.55;100678.63;5008972;28;20560;-63
2021/12/11 00:23:07;;;;;;;8.38;4.53;;;;;;;18.76;45.57;100689.41;4992835;28;20833;-63
2021/12/11 00:25:41;;;;;;;7.47;4.60;;;;;;;18.72;45.33;100686.19;5011178;28;20045;-63
2021/12/11 00:28:06;;;;;;;9.25;4.75;;;;;;;18.75;45.29;100686.91;4993049;28;20122;-64
2021/12/11 00:30:35;;;;;;;9.40;4.70;;;;;;;18.73;44.78;100689.69;5011278;28;20034;-62
2021/12/11 00:33:06;;;;;;;8.65;4.38;;;;;;;18.75;45.34;100684.25;5010917;28;20052;-66
2021/12/11 00:35:32;;;;;;;8.60;4.53;;;;;;;18.72;45.14;100696.81;5009925;28;20034;-63
2021/12/11 00:38:05;;;;;;;8.38;4.50;;;;;;;18.68;45.33;100703.38;5011075;28;20068;-63
2021/12/11 00:40:31;;;;;;;9.32;4.90;;;;;;;18.69;45.07;100706.88;5005069;28;20193;-63
2021/12/11 00:42:57;;;;;;;7.63;4.50;;;;;;;18.67;45.15;100714.16;5006364;28;20162;-63
2021/12/11 00:45:25;;;;;;;8.98;4.80;;;;;;;18.68;45.08;100713.19;4989639;28;20034;-63
2021/12/11 00:48:11;;;;;;;9.35;4.80;;;;;;;18.58;45.13;100721.13;4991405;28;20049;-63
2021/12/11 00:50:43;;;;;;;9.73;4.97;;;;;;;18.62;44.84;100722.56;4989870;28;20070;-63
2021/12/11 00:53:17;;;;;;;8.10;4.20;;;;;;;18.62;45.09;100716.41;4990574;28;20078;-63
2021/12/11 00:55:44;;;;;;;7.70;4.43;;;;;;;18.61;45.78;100720.03;4991295;28;20059;-63
2021/12/11 00:58:30;;;;;;;8.38;4.53;;;;;;;18.57;45.02;100723.97;4989685;28;20096;-63
2021/12/11 01:01:10;;;;;;;8.77;4.70;;;;;;;18.52;45.51;100724.41;4990858;28;20038;-63
2021/12/11 01:03:41;;;;;;;7.47;4.47;;;;;;;18.53;45.04;100739.34;4973004;28;20038;-63
2021/12/11 01:06:28;;;;;;;7.88;4.20;;;;;;;18.52;45.02;100748.31;4990661;28;20042;-64
2021/12/11 01:08:58;;;;;;;8.52;4.53;;;;;;;18.50;45.27;100751.09;5008535;28;20041;-63
2021/12/11 01:11:41;;;;;;;8.15;4.32;;;;;;;18.47;45.11;100751.38;5010365;28;20038;-63
2021/12/11 01:14:16;;;;;;;7.82;4.35;;;;;;;18.46;45.43;100752.34;5008933;28;20081;-63
2021/12/11 01:16:42;;;;;;;8.45;4.18;;;;;;;18.44;45.53;100756.13;5010366;28;20041;-63
2021/12/11 01:19:16;;;;;;;8.52;4.25;;;;;;;18.40;45.39;100760.06;4992304;28;20038;-63
2021/12/11 01:24:15;;;;;;;7.05;4.00;;;;;;;18.42;45.25;100760.72;5008259;28;20053;-63
2021/12/11 01:26:48;;;;;;;6.40;4.10;;;;;;;18.39;45.42;100771.63;5009107;28;20049;-63
2021/12/11 01:29:15;;;;;;;7.65;4.70;;;;;;;18.39;45.11;100780.44;5009897;28;20100;-63
2021/12/11 01:31:40;;;;;;;6.82;4.10;;;;;;;18.40;44.91;100782.13;5008011;28;20038;-63
2021/12/11 01:34:06;;;;;;;7.93;4.25;;;;;;;18.37;45.19;100782.41;5009628;28;20640;-63
2021/12/11 01:36:32;;;;;;;7.47;4.32;;;;;;;18.37;45.50;100785.06;5009965;28;20505;-63
2021/12/11 01:39:01;;;;;;;7.80;4.30;;;;;;;18.37;45.37;100792.19;5023839;28;20038;-63
2021/12/11 01:41:26;;;;;;;9.05;4.88;;;;;;;18.33;45.46;100798.75;4992124;28;20057;-63
2021/12/11 01:43:55;;;;;;;7.97;4.28;;;;;;;18.35;45.30;100805.59;5009804;28;20069;-63
2021/12/11 01:46:22;;;;;;;8.35;4.20;;;;;;;18.32;45.52;100805.88;5008224;28;20061;-63
2021/12/11 01:48:49;;;;;;;10.20;4.47;;;;;;;18.23;45.24;100807.53;5008392;28;20045;-63
2021/12/11 01:51:23;;;;;;;7.53;4.25;;;;;;;18.22;44.99;100821.81;5009364;28;20042;-63
2021/12/11 01:53:53;;;;;;;7.50;4.60;;;;;;;18.25;45.34;100829.50;5008932;28;20042;-63
2021/12/11 01:56:21;;;;;;;8.85;4.45;;;;;;;18.22;45.10;100834.25;5007902;28;20052;-63
2021/12/11 01:59:00;;;;;;;7.28;4.28;;;;;;;18.18;45.41;100833.69;5008176;28;20042;-63
2021/12/11 02:01:47;;;;;;;7.80;4.47;;;;;;;18.21;45.48;100841.38;5008023;28;20046;-63
2021/12/11 02:04:14;;;;;;;7.07;4.10;;;;;;;18.15;45.11;100835.78;5009094;28;20170;-62
2021/12/11 02:06:41;;;;;;;7.60;4.05;;;;;;;18.19;45.29;100843.31;4991482;28;20133;-63
2021/12/11 02:09:20;;;;;;;7.85;4.40;;;;;;;18.16;45.23;100846.25;5007298;28;20648;-63
2021/12/11 02:11:48;;;;;;;8.32;4.30;;;;;;;18.15;45.26;100846.41;5009352;28;20493;-63
2021/12/11 02:14:15;;;;;;;7.25;4.15;;;;;;;18.17;45.26;100855.88;5009016;28;20042;-63
2021/12/11 02:16:45;;;;;;;7.75;4.03;;;;;;;18.12;45.14;100858.13;4974891;28;20038;-63
2021/12/11 02:19:19;;;;;;;7.10;4.30;;;;;;;18.10;45.08;100862.72;5008298;28;20053;-63
2021/12/11 02:21:48;;;;;;;9.38;4.38;;;;;;;18.11;45.34;100867.03;5008212;28;20034;-63
2021/12/11 02:24:20;;;;;;;6.88;4.10;;;;;;;18.11;45.29;100863.56;5009061;28;20053;-63
2021/12/11 02:26:46;;;;;;;7.80;4.32;;;;;;;18.10;45.18;100870.69;5007987;28;20030;-63
2021/12/11 02:29:25;;;;;;;7.05;4.22;;;;;;;18.09;45.11;100869.00;5007117;28;20520;-63
2021/12/11 02:32:04;;;;;;;7.30;4.00;;;;;;;18.04;45.64;100865.91;5006448;28;20092;-63
2021/12/11 02:34:36;;;;;;;7.43;3.90;;;;;;;18.06;45.26;100873.75;5006800;28;20545;-63
2021/12/11 02:37:21;;;;;;;7.03;3.90;;;;;;;18.07;45.08;100880.75;5007878;28;20291;-63
2021/12/11 02:40:19;;;;;;;7.15;4.15;;;;;;;18.08;45.10;100888.56;5007123;28;20041;-63
2021/12/11 02:43:05;;;;;;;8.45;4.20;;;;;;;18.04;45.09;100887.16;5008541;28;20442;-63
2021/12/11 02:45:37;;;;;;;7.10;4.22;;;;;;;18.03;45.23;100890.78;5008248;28;20375;-63
2021/12/11 02:48:38;;;;;;;6.38;4.03;;;;;;;17.99;44.79;100894.69;5008431;28;20140;-63
2021/12/11 02:51:11;;;;;;;6.88;4.10;;;;;;;18.00;45.21;100904.31;5008020;28;20076;-63
2021/12/11 02:54:02;;;;;;;6.60;3.47;;;;;;;18.01;44.91;100903.34;5007511;28;20038;-63
2021/12/11 02:56:34;;;;;;;7.57;4.40;;;;;;;17.98;45.34;100906.28;5007307;28;20073;-63
2021/12/11 02:59:03;;;;;;;6.97;3.80;;;;;;;18.02;45.27;100911.19;5007374;28;20498;-63
2021/12/11 03:01:32;;;;;;;7.05;4.47;;;;;;;17.99;45.00;100906.16;5008286;28;20046;-63
2021/12/11 03:04:24;;;;;;;7.38;4.18;;;;;;;17.99;45.04;100905.31;5008097;28;20529;-63
2021/12/11 03:06:51;;;;;;;7.90;4.25;;;;;;;17.99;44.88;100906.16;5007049;28;20045;-63
2021/12/11 03:09:20;;;;;;;7.97;4.25;;;;;;;17.98;45.07;100903.63;4990155;28;20065;-63
2021/12/11 03:11:45;;;;;;;8.68;4.10;;;;;;;17.95;44.90;100910.03;5008484;28;20041;-63
2021/12/11 03:14:14;;;;;;;8.00;4.15;;;;;;;17.97;45.13;100917.88;5006891;28;20417;-63
2021/12/11 03:16:40;;;;;;;8.18;4.30;;;;;;;17.93;45.32;100897.88;5008772;28;20494;-63
2021/12/11 03:19:07;;;;;;;6.40;3.92;;;;;;;17.91;45.15;100903.31;5008023;28;20049;-64
2021/12/11 03:21:32;;;;;;;7.05;3.97;;;;;;;17.87;45.01;100895.75;4991055;28;20539;-63
2021/12/11 03:23:58;;;;;;;6.15;3.70;;;;;;;17.89;45.02;100891.97;5007203;28;20124;-63
2021/12/11 03:26:23;;;;;;;7.38;3.42;;;;;;;17.89;45.41;100899.09;5008294;28;20056;-63
2021/12/11 03:28:49;;;;;;;8.38;3.80;;;;;;;17.90;44.89;100890.19;5007323;28;20084;-63
2021/12/11 03:31:14;;;;;;;6.70;4.10;;;;;;;17.87;45.05;100893.09;5006998;28;20038;-63
2021/12/11 03:33:42;;;;;;;9.75;4.30;;;;;;;17.86;45.04;100894.91;5007404;28;20490;-63
2021/12/11 03:36:09;;;;;;;7.55;3.83;;;;;;;17.87;45.15;100893.09;4990846;28;20037;-63
2021/12/11 03:38:35;;;;;;;7.30;4.00;;;;;;;17.84;45.40;100896.03;5006920;28;20069;-63
2021/12/11 03:41:01;;;;;;;6.97;4.18;;;;;;;17.83;45.28;100889.03;5008106;28;20062;-64
2021/12/11 03:43:27;;;;;;;6.80;3.50;;;;;;;17.80;45.14;100885.69;5008370;28;20076;-63
2021/12/11 03:45:54;;;;;;;6.38;3.65;;;;;;;17.75;45.20;100877.22;5007506;28;20050;-63
2021/12/11 03:48:23;;;;;;;8.63;3.72;;;;;;;17.78;45.17;100890.28;5007355;28;20193;-62
2021/12/11 03:50:48;;;;;;;7.28;3.80;;;;;;;17.79;45.03;100886.63;4991004;28;20046;-63
2021/12/11 03:53:14;;;;;;;6.93;3.67;;;;;;;17.78;45.13;100892.91;4992089;28;20034;-63
2021/12/11 03:55:47;;;;;;;7.28;3.65;;;;;;;17.79;45.55;100889.28;4981377;28;20042;-63
2021/12/11 03:58:13;;;;;;;7.72;3.53;;;;;;;17.75;45.20;100890.50;4992624;28;20046;-63
2021/12/11 04:00:41;;;;;;;7.13;3.25;;;;;;;17.73;45.21;100899.56;5007578;28;20041;-62
2021/12/11 04:03:07;;;;;;;6.38;3.60;;;;;;;17.72;45.16;100885.47;4991766;28;20050;-63
2021/12/11 04:05:34;;;;;;;7.15;3.35;;;;;;;17.73;45.48;100887.13;4992104;28;20038;-63
2021/12/11 04:07:59;;;;;;;6.03;3.30;;;;;;;17.67;45.31;100900.09;4996558;28;20173;-63
2021/12/11 04:10:27;;;;;;;6.03;3.28;;;;;;;17.70;45.37;100900.66;5009871;28;20082;-63
2021/12/11 04:12:54;;;;;;;9.65;3.25;;;;;;;17.69;45.43;100893.69;5011705;28;20046;-63
2021/12/11 04:15:19;;;;;;;5.95;3.28;;;;;;;17.68;45.33;100897.31;5011128;28;20065;-63
2021/12/11 04:17:45;;;;;;;7.50;2.80;;;;;;;17.67;45.96;100892.97;5010014;28;20478;-63
2021/12/11 04:20:14;;;;;;;6.10;2.50;;;;;;;17.69;45.54;100898.16;5011037;28;20065;-64
2021/12/11 04:22:40;;;;;;;5.88;2.70;;;;;;;17.71;45.67;100904.19;5011501;28;20490;-63
2021/12/11 04:25:07;;;;;;;6.75;2.80;;;;;;;17.69;45.65;100892.84;5009754;28;20046;-63
2021/12/11 04:27:32;;;;;;;9.80;2.78;;;;;;;17.65;46.01;100897.56;5011446;28;20132;-63
2021/12/11 04:29:58;;;;;;;7.30;2.65;;;;;;;17.65;45.69;100894.09;5011502;28;20153;-63
2021/12/11 04:32:28;;;;;;;5.03;2.20;;;;;;;17.68;45.56;100902.63;5011091;28;20045;-63
2021/12/11 04:34:54;;;;;;;5.03;2.28;;;;;;;17.67;45.48;100905.38;5011475;28;20042;-63
2021/12/11 04:37:22;;;;;;;5.22;2.20;;;;;;;17.68;45.36;100907.94;5009652;28;20092;-63
2021/12/11 04:39:53;;;;;;;6.47;2.40;;;;;;;17.64;45.85;100913.63;5010965;28;20157;-63
2021/12/11 04:42:30;;;;;;;5.43;2.13;;;;;;;17.64;45.85;100916.25;5009655;28;20430;-63
2021/12/11 04:44:55;;;;;;;5.97;2.17;;;;;;;17.62;45.73;100911.09;5009805;28;20083;-63
2021/12/11 04:47:38;;;;;;;4.68;1.80;;;;;;;17.57;45.83;100913.31;5010629;28;20687;-63
2021/12/11 04:50:12;;;;;;;6.57;2.40;;;;;;;17.61;45.89;100914.72;5010670;28;20061;-63
2021/12/11 04:52:53;;;;;;;5.55;2.10;;;;;;;17.64;45.88;100917.09;5009814;28;20041;-62
2021/12/11 04:57:59;;;;;;;5.45;1.98;;;;;;;17.62;46.11;100924.38;5009273;28;20490;-63
2021/12/11 05:09:12;;;;;;;4.75;1.90;;;;;;;17.60;46.00;100931.59;5009404;28;20129;-63
2021/12/11 05:11:33;;;;;;;4.00;1.63;;;;;;;17.64;46.14;100948.94;5007482;28;20037;-63
2021/12/11 05:13:59;;;;;;;4.28;1.70;;;;;;;17.61;45.66;100946.53;5009289;28;20634;-63
2021/12/11 05:16:24;;;;;;;6.05;2.03;;;;;;;17.61;45.61;100951.84;5008900;28;20058;-63
2021/12/11 05:18:50;;;;;;;4.75;1.38;;;;;;;17.61;45.61;100958.97;4988443;28;20040;-63
2021/12/11 05:21:17;;;;;;;3.20;1.55;;;;;;;17.58;46.02;100962.75;4989875;28;20038;-63
2021/12/11 05:23:43;;;;;;;3.85;1.50;;;;;;;17.62;45.96;100968.63;4990290;28;20113;-63
2021/12/11 05:26:08;;;;;;;6.35;1.92;;;;;;;17.54;46.25;100971.91;4988852;28;20121;-63
2021/12/11 05:28:34;;;;;;;6.10;1.42;;;;;;;17.55;45.79;100982.41;4991342;28;20576;-63
2021/12/11 05:31:00;;;;;;;3.75;1.50;;;;;;;17.54;46.11;100990.47;5009873;28;20046;-63
2021/12/11 05:33:26;;;;;;;5.85;1.45;;;;;;;17.55;45.87;100994.84;4992184;28;20052;-63
2021/12/11 05:35:51;;;;;;;4.93;1.52;;;;;;;17.52;45.63;100998.59;5010034;28;20026;-63
2021/12/11 05:38:17;;;;;;;3.97;1.38;;;;;;;17.56;45.57;101009.78;5009538;28;20124;-63
2021/12/11 05:40:48;;;;;;;4.82;1.50;;;;;;;17.52;46.38;101014.50;4992509;28;20045;-63
2021/12/11 05:43:14;;;;;;;4.82;1.33;;;;;;;17.53;45.92;101016.16;5009532;28;20038;-63
2021/12/11 05:45:39;;;;;;;3.92;1.20;;;;;;;17.56;46.26;101031.00;4992401;28;20848;-63
2021/12/11 05:48:05;;;;;;;4.50;1.38;;;;;;;17.52;46.35;101042.84;4992001;28;20037;-63
2021/12/11 05:50:33;;;;;;;4.53;1.70;;;;;;;17.53;45.96;101041.88;5010085;28;20045;-63
2021/12/11 05:52:59;;;;;;;4.88;1.63;;;;;;;17.51;45.92;101054.41;5009783;28;20053;-63
2021/12/11 05:55:25;;;;;;;4.20;1.60;;;;;;;17.50;45.92;101063.34;5008249;28;20037;-63
2021/12/11 05:57:54;;;;;;;5.30;1.58;;;;;;;17.55;45.98;101062.00;5009726;28;20034;-63
2021/12/11 06:00:26;;;;;;;3.92;1.40;;;;;;;17.62;45.75;101064.97;5009108;28;20486;-63
2021/12/11 06:02:51;;;;;;;4.13;1.60;;;;;;;17.68;45.82;101075.09;5009052;28;20041;-63
2021/12/11 06:05:17;;;;;;;5.10;1.65;;;;;;;17.75;45.55;101084.22;5008539;28;20042;-63
2021/12/11 06:07:43;;;;;;;4.57;1.77;;;;;;;17.80;45.58;101091.84;4990040;28;20446;-63
2021/12/11 06:10:12;;;;;;;5.70;1.90;;;;;;;17.89;45.48;101095.50;4987843;28;20193;-63
2021/12/11 06:12:37;;;;;;;3.95;1.60;;;;;;;17.97;45.46;101109.00;4989162;28;20049;-63
2021/12/11 06:15:03;;;;;;;5.07;1.70;;;;;;;18.04;45.11;101116.28;4987822;28;20050;-64
2021/12/11 06:17:30;;;;;;;4.43;1.80;;;;;;;18.15;45.14;101120.72;4989629;28;20073;-63
2021/12/11 06:19:56;;;;;;;4.35;1.73;;;;;;;18.27;44.96;101132.97;4987673;28;20038;-63
2021/12/11 06:22:27;;;;;;;4.70;1.77;;;;;;;18.38;45.04;101144.47;4987608;28;20058;-63
2021/12/11 06:24:52;;;;;;;4.85;1.60;;;;;;;18.50;44.67;101156.72;4987803;28;20066;-63
2021/12/11 06:27:18;;;;;;;4.72;1.70;;;;;;;18.62;45.00;101162.81;4988814;28;20076;-63
2021/12/11 06:29:43;;;;;;;3.75;1.60;;;;;;;18.71;44.81;101170.84;4990496;28;20060;-63
2021/12/11 06:32:09;;;;;;;4.68;1.80;;;;;;;18.81;44.58;101180.72;4970839;28;20069;-63
2021/12/11 06:34:34;;;;;;;4.57;1.58;;;;;;;18.88;44.67;101187.16;4987732;28;20591;-63
2021/12/11 06:37:01;;;;;;;3.58;1.60;;;;;;;18.91;44.30;101187.75;4971655;28;20518;-63
2021/12/11 06:39:26;;;;;;;4.93;1.80;;;;;;;18.97;44.47;101198.81;4988998;28;20079;-63
2021/12/11 06:41:54;;;;;;;5.78;2.10;;;;;;;19.01;43.90;101203.72;4989428;28;20136;-63
2021/12/11 06:44:20;;;;;;;5.95;1.90;;;;;;;19.03;44.01;101220.41;4987634;28;20588;-63
2021/12/11 06:46:45;;;;;;;4.22;1.70;;;;;;;19.06;44.40;101224.63;4989464;28;20125;-63
2021/12/11 06:49:11;;;;;;;4.28;1.75;;;;;;;19.08;44.21;101227.97;4982429;28;20100;-63
2021/12/11 06:51:37;;;;;;;4.47;1.70;;;;;;;19.09;44.50;101233.16;4997341;28;20066;-63
2021/12/11 06:54:06;;;;;;;5.07;1.98;;;;;;;19.10;44.58;101237.50;4985802;28;20141;-63
2021/12/11 06:56:32;;;;;;;5.70;1.85;;;;;;;19.11;44.20;101247.16;4970540;28;20046;-63
2021/12/11 06:58:57;;;;;;;4.13;1.92;;;;;;;19.12;44.56;101250.69;4970514;28;20038;-63
2021/12/11 07:01:23;;;;;;;6.32;1.95;;;;;;;19.14;44.02;101256.69;4983043;28;20181;-63
2021/12/11 07:03:49;;;;;;;4.30;1.90;;;;;;;19.17;44.00;101259.09;4988364;28;20053;-63
2021/12/11 07:06:15;;;;;;;5.85;2.10;;;;;;;19.17;44.86;101269.72;5000021;28;20447;-62
2021/12/11 07:08:41;;;;;;;4.13;1.63;;;;;;;19.19;44.71;101271.28;5003844;28;20054;-62
2021/12/11 07:11:07;;;;;;;4.85;2.05;;;;;;;19.22;44.36;101277.31;4987074;28;20033;-63
2021/12/11 07:13:33;;;;;;;4.60;1.90;;;;;;;19.23;44.84;101286.97;4988848;28;20050;-62
2021/12/11 07:15:58;;;;;;;3.63;1.90;;;;;;;19.25;44.93;101295.69;5003672;28;20100;-62
2021/12/11 07:18:24;;;;;;;4.35;1.92;;;;;;;19.28;44.95;101298.06;4997632;28;20088;-62
2021/12/11 07:20:49;;;;;;;4.15;1.90;;;;;;;19.30;44.05;101306.75;5010270;28;20030;-62
2021/12/11 07:23:15;;;;;;;5.10;2.03;;;;;;;19.30;44.90;101299.59;5010857;28;20115;-63
2021/12/11 07:25:42;;;;;;;4.88;1.67;;;;;;;19.34;44.90;101311.69;5011033;28;20132;-62
2021/12/11 07:28:09;;;;;;;6.20;1.90;;;;;;;19.36;44.76;101308.88;5012013;28;20125;-63
2021/12/11 07:30:35;;;;;;;6.13;1.83;;;;;;;19.32;44.92;101307.47;5010919;28;20486;-63
2021/12/11 07:33:00;;;;;;;5.30;2.03;;;;;;;19.35;44.62;101317.84;5010889;28;20088;-63
2021/12/11 07:35:26;;;;;;;5.70;2.30;;;;;;;19.39;45.08;101322.75;5009481;28;20172;-63
2021/12/11 07:37:51;;;;;;;5.47;2.20;;;;;;;19.41;44.68;101322.63;4994834;28;20073;-64
2021/12/11 07:40:18;;;;;;;6.80;2.30;;;;;;;19.45;45.28;101325.88;5010636;28;20495;-62
2021/12/11 07:42:44;;;;;;;12.18;2.30;;;;;;;19.44;44.81;101330.34;5011294;28;20034;-63
2021/12/11 07:45:09;;;;;;;9.93;2.17;;;;;;;19.47;45.45;101351.38;5010863;28;20565;-63
2021/12/11 07:47:35;;;;;;;7.18;3.67;;;;;;;19.29;45.32;101344.97;5010465;28;20422;-64
2021/12/11 07:50:00;;;;;;;6.95;3.40;;;;;;;19.35;44.88;101342.63;5010722;28;20042;-63
2021/12/11 07:52:26;;;;;;;13.95;3.70;;;;;;;19.30;44.83;101347.50;5001091;28;20566;-63
2021/12/11 07:54:51;;;;;;;5.97;2.60;;;;;;;19.40;45.33;101356.38;5001316;28;20046;-63
2021/12/11 07:57:17;;;;;;;7.50;2.50;;;;;;;19.44;44.94;101351.66;5006801;28;20073;-63
2021/12/11 07:59:42;;;;;;;5.75;2.50;;;;;;;19.47;45.15;101362.03;5003585;28;20065;-62
2021/12/11 08:02:08;;;;;;;8.48;2.58;;;;;;;19.50;45.42;101372.41;4990472;28;20049;-63
2021/12/11 08:04:34;;;;;;;9.52;2.40;;;;;;;19.49;45.67;101372.53;5008224;28;20045;-62
2021/12/11 08:07:00;;;;;;;7.25;2.72;;;;;;;19.36;45.58;101380.72;5001996;28;20049;-62
2021/12/11 08:09:26;;;;;;;9.18;2.92;;;;;;;19.36;45.78;101380.72;4977224;28;20406;-61
2021/12/11 08:11:51;;;;;;;7.90;3.05;;;;;;;19.42;45.05;101386.34;4990857;28;20030;-62
2021/12/11 08:14:17;;;;;;;9.27;3.20;;;;;;;19.41;45.49;101394.47;4989893;28;20046;-62
2021/12/11 08:16:47;;;;;;;17.73;3.30;;;;;;;19.38;45.62;101397.41;4993082;28;20035;-62
2021/12/11 08:19:15;;;;;;;9.73;3.40;;;;;;;19.31;45.86;101409.56;5001538;28;20039;-63
2021/12/11 08:21:40;;;;;;;9.52;3.05;;;;;;;19.29;45.10;101416.81;4991395;28;20085;-62
2021/12/11 08:24:07;;;;;;;9.38;2.95;;;;;;;19.34;45.80;101422.59;4991402;28;20077;-63
2021/12/11 08:26:34;;;;;;;7.03;3.33;;;;;;;19.35;45.41;101413.63;4992518;28;20045;-64
2021/12/11 08:28:59;;;;;;;10.68;2.80;;;;;;;19.33;45.29;101429.72;5001033;28;20055;-63
2021/12/11 08:31:25;;;;;;;9.20;2.83;;;;;;;19.32;45.73;101433.34;5004951;28;20189;-63
2021/12/11 08:33:51;;;;;;;8.88;2.80;;;;;;;19.36;45.79;101432.09;4957822;28;20117;-61
2021/12/11 08:36:16;;;;;;;7.38;2.85;;;;;;;19.30;45.58;101434.44;4991559;28;20057;-63
2021/12/11 08:38:42;;;;;;;8.27;2.83;;;;;;;19.33;45.77;101442.16;5003032;28;20228;-62
2021/12/11 08:41:08;;;;;;;7.88;2.90;;;;;;;19.34;45.86;101447.38;4991210;28;20073;-63
2021/12/11 08:43:33;;;;;;;7.07;3.30;;;;;;;19.35;46.02;101442.91;4991313;28;20185;-63
2021/12/11 08:46:09;;;;;;;8.00;3.20;;;;;;;19.40;45.58;101456.66;4990171;28;20467;-64
2021/12/11 08:48:36;;;;;;;7.50;2.90;;;;;;;19.33;46.02;101455.47;4988494;28;20395;-64
2021/12/11 08:51:08;;;;;;;8.90;3.25;;;;;;;19.28;46.25;101453.22;4988076;28;20044;-64
2021/12/11 08:53:34;;;;;;;8.40;3.08;;;;;;;19.23;45.98;101455.41;4990116;28;20046;-64
2021/12/11 08:55:59;;;;;;;9.27;3.20;;;;;;;19.17;46.33;101456.75;4991858;28;20126;-64
2021/12/11 08:58:25;;;;;;;7.40;2.95;;;;;;;19.16;46.41;101459.56;4990874;28;20498;-64
2021/12/11 09:00:58;;;;;;;7.13;2.90;;;;;;;19.13;46.69;101471.28;5003122;28;20612;-64
2021/12/11 09:03:26;;;;;;;4.55;2.50;;;;;;;19.12;46.57;101474.09;5010098;28;20061;-65
2021/12/11 09:06:23;;;;;;;8.65;3.20;;;;;;;19.07;46.19;101482.44;5010828;28;20093;-64
2021/12/11 09:08:58;;;;;;;6.88;2.60;;;;;;;19.06;45.89;101486.06;4984676;28;20069;-64
2021/12/11 09:11:37;;;;;;;9.00;2.90;;;;;;;19.04;46.06;101493.31;5010226;28;20129;-64
2021/12/11 09:14:09;;;;;;;6.07;2.63;;;;;;;19.03;46.22;101496.97;5008822;28;20211;-64
2021/12/11 09:16:44;;;;;;;6.28;2.90;;;;;;;19.02;45.62;101500.59;5010665;28;20125;-64
2021/12/11 09:19:26;;;;;;;7.55;2.70;;;;;;;19.01;45.77;101504.22;5009841;28;20132;-64
2021/12/11 09:21:57;;;;;;;7.97;2.95;;;;;;;19.00;45.52;101513.16;5010648;28;20165;-64
2021/12/11 09:24:24;;;;;;;7.30;3.00;;;;;;;19.01;45.75;101514.00;5008775;28;20069;-64
2021/12/11 09:26:58;;;;;;;7.30;3.20;;;;;;;18.99;45.46;101516.81;5010397;28;20517;-64
2021/12/11 09:30:02;;;;;;;8.02;3.03;;;;;;;18.93;46.01;101512.84;5008606;28;20051;-64
2021/12/11 09:32:29;;;;;;;8.70;3.10;;;;;;;18.94;45.46;101519.00;4968525;28;20047;-64
2021/12/11 09:35:08;;;;;;;6.85;3.10;;;;;;;18.92;45.42;101526.22;4986789;28;20038;-64
2021/12/11 09:37:34;;;;;;;6.13;2.73;;;;;;;18.91;45.26;101535.19;4990415;28;20108;-64
2021/12/11 09:40:06;;;;;;;7.47;2.88;;;;;;;18.87;45.73;101531.94;4989204;28;20038;-64
2021/12/11 09:42:31;;;;;;;7.53;3.10;;;;;;;18.91;45.89;101540.50;4990150;28;20030;-64
2021/12/11 09:45:03;;;;;;;8.20;3.45;;;;;;;18.87;45.43;101537.25;4989218;28;20109;-64
2021/12/11 09:47:31;;;;;;;6.50;2.90;;;;;;;18.87;45.48;101536.41;4989583;28;20724;-64
2021/12/11 09:50:03;;;;;;;6.65;2.88;;;;;;;18.85;45.93;101536.53;4990405;28;20129;-64
2021/12/11 09:52:29;;;;;;;6.68;3.10;;;;;;;18.86;45.74;101535.53;4990031;28;20569;-64
2021/12/11 09:55:04;;;;;;;9.43;3.40;;;;;;;18.83;45.34;101534.94;4990170;28;20089;-64
2021/12/11 09:57:31;;;;;;;7.00;2.95;;;;;;;18.82;46.04;101546.56;4973116;28;20530;-64
2021/12/11 09:59:57;;;;;;;7.05;3.00;;;;;;;18.80;45.88;101553.81;4988947;28;20112;-64
2021/12/11 10:02:26;;;;;;;6.40;3.00;;;;;;;18.81;45.64;101555.53;5007870;28;20128;-64
2021/12/11 10:05:01;;;;;;;6.80;3.05;;;;;;;18.79;45.28;101560.09;5008045;28;20045;-64
2021/12/11 10:07:34;;;;;;;7.35;2.90;;;;;;;18.79;45.33;101562.75;5009339;28;20177;-64
2021/12/11 10:10:07;;;;;;;7.22;2.72;;;;;;;18.75;45.28;101561.31;5009782;28;20125;-63
2021/12/11 10:12:35;;;;;;;8.77;3.00;;;;;;;18.74;45.20;101565.81;5009582;28;20137;-64
2021/12/11 10:15:11;;;;;;;9.07;2.90;;;;;;;18.76;45.61;101578.97;5007948;28;20069;-67
2021/12/11 10:17:49;;;;;;;7.20;2.80;;;;;;;18.76;45.57;101576.31;5008263;28;20176;-64
2021/12/11 10:20:21;;;;;;;7.45;2.78;;;;;;;18.72;45.61;101583.66;5007650;28;20057;-64
2021/12/11 10:22:47;;;;;;;7.50;2.50;;;;;;;18.70;45.79;101581.09;5008009;28;20137;-64
2021/12/11 10:25:20;;;;;;;6.65;2.25;;;;;;;18.70;45.68;101586.41;5008744;28;20049;-64
2021/12/11 10:27:45;;;;;;;6.65;2.50;;;;;;;18.70;45.87;101591.72;5008115;28;20498;-64
2021/12/11 10:30:14;;;;;;;6.63;2.28;;;;;;;18.68;45.78;101583.03;5008369;28;20112;-64
2021/12/11 10:32:39;;;;;;;4.78;2.17;;;;;;;18.66;45.51;101587.63;5009322;28;20050;-64
2021/12/11 10:35:12;;;;;;;7.03;2.42;;;;;;;18.66;45.98;101590.28;5008706;28;20477;-64
2021/12/11 10:37:38;;;;;;;7.50;2.63;;;;;;;18.64;45.77;101588.72;5007988;28;20046;-64
2021/12/11 10:40:11;;;;;;;5.40;2.22;;;;;;;18.62;45.64;101593.31;5007416;28;20121;-64
2021/12/11 10:42:36;;;;;;;6.45;1.92;;;;;;;18.65;45.91;101603.72;5009291;28;20049;-64
2021/12/11 10:45:02;;;;;;;7.25;2.28;;;;;;;18.63;45.59;101601.16;5008646;28;20045;-64
2021/12/11 10:47:37;;;;;;;5.13;2.25;;;;;;;18.63;45.88;101601.16;5007656;28;20061;-64
2021/12/11 10:50:19;;;;;;;4.65;1.83;;;;;;;18.63;45.63;101601.16;5008619;28;20069;-64
2021/12/11 10:52:45;;;;;;;5.93;2.40;;;;;;;18.56;45.86;101609.75;5009119;28;20478;-63
2021/12/11 10:55:12;;;;;;;6.45;2.38;;;;;;;18.48;46.61;101607.69;5006714;28;20045;-63
2021/12/11 10:57:38;;;;;;;8.10;2.33;;;;;;;18.34;46.38;101611.41;5008818;28;20065;-63
2021/12/11 11:00:06;;;;;;;4.93;2.03;;;;;;;18.47;47.03;101611.31;5008203;28;20056;-64
2021/12/11 11:02:32;;;;;;;9.27;2.47;;;;;;;18.50;46.71;101609.25;5008790;28;20049;-62
2021/12/11 11:05:04;;;;;;;7.65;2.13;;;;;;;18.59;46.87;101613.00;5008464;28;20456;-63
2021/12/11 11:07:31;;;;;;;6.88;2.22;;;;;;;18.62;47.10;101612.78;4996955;28;20059;-63
2021/12/11 11:09:58;;;;;;;4.97;2.08;;;;;;;18.66;47.53;101622.19;4994905;28;20061;-62
2021/12/11 11:12:24;;;;;;;9.70;2.47;;;;;;;18.70;47.36;101613.00;4992485;28;20486;-62
2021/12/11 11:14:49;;;;;;;10.68;2.33;;;;;;;18.72;47.90;101611.09;4993921;28;20045;-62
2021/12/11 11:17:16;;;;;;;5.78;1.90;;;;;;;18.76;47.48;101610.84;4991272;28;20629;-62
2021/12/11 11:19:42;;;;;;;7.63;2.03;;;;;;;18.77;47.69;101607.22;4997676;28;20034;-62
2021/12/11 11:22:11;;;;;;;7.82;2.13;;;;;;;18.78;47.97;101615.09;4992063;28;20422;-62
2021/12/11 11:24:43;;;;;;;8.88;2.08;;;;;;;18.84;48.27;101616.44;5008588;28;20486;-62
2021/12/11 11:27:09;;;;;;;5.78;2.08;;;;;;;18.84;48.20;101621.75;5005139;28;20401;-63
2021/12/11 11:29:34;;;;;;;6.93;1.83;;;;;;;18.84;48.59;101624.41;4997982;28;20053;-62
2021/12/11 11:32:03;;;;;;;5.35;1.90;;;;;;;18.83;47.77;101623.53;4994517;28;20140;-62
2021/12/11 11:34:29;;;;;;;8.68;2.05;;;;;;;18.86;48.21;101633.06;4993025;28;20145;-62
2021/12/11 11:36:56;;;;;;;9.10;1.90;;;;;;;18.89;48.40;101635.50;5000172;28;20073;-62
2021/12/11 11:39:22;;;;;;;5.93;1.65;;;;;;;18.95;48.23;101641.16;4990402;28;20057;-62
2021/12/11 11:41:50;;;;;;;8.25;1.80;;;;;;;19.01;47.61;101645.16;4986909;28;21575;-62
2021/12/11 11:44:16;;;;;;;5.53;1.60;;;;;;;19.08;47.92;101643.69;5007812;28;20068;-62
2021/12/11 11:46:41;;;;;;;5.75;1.48;;;;;;;19.12;47.52;101645.16;5001820;28;20475;-64